createdAt,value
2019-02-18T00:01:07.274Z,50.40
2019-02-18T00:03:36.821Z,50.70
2019-02-18T00:06:06.237Z,50.70
2019-02-18T00:08:35.498Z,50.70
2019-02-18T00:11:05.005Z,50.70
2019-02-18T00:13:34.335Z,50.80
2019-02-18T00:16:03.665Z,50.80
2019-02-18T00:18:33.144Z,50.80
2019-02-18T00:21:02.563Z,50.80
2019-02-18T00:23:32.100Z,50.80
2019-02-18T00:26:01.641Z,50.80
2019-02-18T00:28:31.174Z,50.80
2019-02-18T00:31:00.719Z,50.70
2019-02-18T00:33:31.175Z,50.80
2019-02-18T00:36:00.659Z,50.80
2019-02-18T00:38:30.122Z,50.80
2019-02-18T00:40:59.587Z,50.80
2019-02-18T00:43:29.007Z,50.90
2019-02-18T00:45:58.370Z,50.90
2019-02-18T00:48:29.095Z,51.00
2019-02-18T00:50:58.544Z,51.20
2019-02-18T00:53:28.181Z,51.20
2019-02-18T00:56:00.479Z,51.50
2019-02-18T00:58:32.089Z,51.60
2019-02-18T01:01:01.460Z,51.50
2019-02-18T01:03:31.044Z,51.50
2019-02-18T01:06:00.442Z,51.50
2019-02-18T01:08:30.038Z,51.50
2019-02-18T01:10:59.578Z,51.40
2019-02-18T01:13:31.998Z,51.50
2019-02-18T01:16:01.506Z,51.30
2019-02-18T01:18:30.916Z,51.40
2019-02-18T01:21:00.310Z,51.50
2019-02-18T01:23:29.997Z,51.50
2019-02-18T01:25:59.486Z,51.60
2019-02-18T01:28:29.058Z,51.90
2019-02-18T01:30:58.542Z,52.00
2019-02-18T01:33:28.104Z,52.10
2019-02-18T01:35:57.516Z,52.10
2019-02-18T01:38:27.018Z,52.10
2019-02-18T01:40:56.560Z,52.00
2019-02-18T01:43:26.067Z,52.10
2019-02-18T01:45:55.550Z,52.20
2019-02-18T01:48:24.853Z,52.20
2019-02-18T01:50:54.200Z,52.10
2019-02-18T01:53:23.498Z,52.20
2019-02-18T01:55:52.910Z,52.10
2019-02-18T01:58:22.572Z,52.10
2019-02-18T02:00:52.006Z,52.20
2019-02-18T02:03:21.307Z,52.10
2019-02-18T02:05:50.939Z,52.20
2019-02-18T02:08:20.440Z,52.10
2019-02-18T02:10:49.831Z,52.10
2019-02-18T02:13:33.185Z,51.90
2019-02-18T02:16:04.451Z,51.90
2019-02-18T02:18:34.001Z,51.90
2019-02-18T02:21:03.623Z,51.80
2019-02-18T02:23:33.201Z,51.90
2019-02-18T02:26:02.615Z,51.90
2019-02-18T02:28:32.047Z,51.90
2019-02-18T02:31:01.565Z,52.00
2019-02-18T02:33:30.999Z,52.00
2019-02-18T02:36:00.276Z,52.10
2019-02-18T02:38:29.936Z,52.20
2019-02-18T02:41:00.387Z,52.10
2019-02-18T02:43:29.794Z,52.00
2019-02-18T02:45:59.274Z,52.00
2019-02-18T02:48:28.808Z,52.10
2019-02-18T02:50:58.249Z,52.20
2019-02-18T02:53:27.615Z,52.20
2019-02-18T02:55:56.993Z,52.20
2019-02-18T02:58:26.311Z,52.20
2019-02-18T03:00:56.635Z,52.10
2019-02-18T03:03:25.979Z,52.00
2019-02-18T03:05:55.412Z,52.00
2019-02-18T03:08:24.718Z,52.10
2019-02-18T03:10:54.060Z,52.10
2019-02-18T03:13:23.388Z,52.10
2019-02-18T03:15:52.754Z,52.70
2019-02-18T03:18:22.120Z,52.10
2019-02-18T03:20:51.514Z,52.10
2019-02-18T03:23:20.937Z,52.20
2019-02-18T03:25:52.241Z,52.20
2019-02-18T03:28:54.440Z,52.20
2019-02-18T03:31:26.261Z,52.20
2019-02-18T03:34:12.480Z,52.30
2019-02-18T03:36:41.922Z,52.20
2019-02-18T03:39:11.206Z,52.20
2019-02-18T03:41:41.594Z,52.30
2019-02-18T03:44:10.969Z,52.20
2019-02-18T03:46:40.443Z,52.20
2019-02-18T03:49:09.809Z,52.30
2019-02-18T03:51:39.290Z,52.30
2019-02-18T03:54:08.624Z,52.30
2019-02-18T03:56:37.990Z,52.30
2019-02-18T03:59:08.842Z,52.30
2019-02-18T04:01:38.253Z,52.40
2019-02-18T04:04:08.607Z,52.30
2019-02-18T04:06:37.935Z,52.40
2019-02-18T04:09:07.315Z,52.40
2019-02-18T04:11:36.618Z,52.50
2019-02-18T04:14:05.944Z,52.60
2019-02-18T04:16:35.206Z,52.50
2019-02-18T04:19:04.622Z,52.60
2019-02-18T04:21:34.005Z,52.60
2019-02-18T04:24:03.353Z,52.70
2019-02-18T04:26:32.660Z,52.70
2019-02-18T04:29:02.016Z,52.60
2019-02-18T04:31:31.341Z,52.70
2019-02-18T04:34:00.651Z,52.60
2019-02-18T04:36:30.128Z,52.80
2019-02-18T04:38:59.709Z,52.80
2019-02-18T04:41:29.085Z,52.90
2019-02-18T04:43:58.412Z,52.80
2019-02-18T04:46:27.766Z,52.80
2019-02-18T04:48:57.214Z,52.90
2019-02-18T04:51:26.554Z,52.90
2019-02-18T04:53:55.852Z,53.00
2019-02-18T04:56:25.136Z,53.00
2019-02-18T04:58:54.442Z,53.10
2019-02-18T05:01:23.757Z,53.10
2019-02-18T05:03:53.148Z,53.00
2019-02-18T05:06:22.433Z,53.00
2019-02-18T05:08:51.720Z,53.70
2019-02-18T05:11:21.034Z,53.10
2019-02-18T05:13:50.385Z,53.10
2019-02-18T05:16:19.706Z,53.10
2019-02-18T05:18:49.077Z,53.10
2019-02-18T05:21:18.424Z,53.10
2019-02-18T05:23:47.801Z,53.10
2019-02-18T05:26:17.227Z,53.10
2019-02-18T05:28:46.514Z,53.20
2019-02-18T05:31:15.922Z,53.20
2019-02-18T05:33:45.268Z,53.20
2019-02-18T05:36:14.575Z,53.20
2019-02-18T05:38:44.007Z,53.20
2019-02-18T05:41:13.835Z,53.20
2019-02-18T05:43:43.280Z,53.30
2019-02-18T05:46:12.692Z,53.30
2019-02-18T05:48:42.001Z,53.40
2019-02-18T05:51:11.363Z,53.40
2019-02-18T05:53:40.720Z,53.40
2019-02-18T05:56:10.023Z,53.50
2019-02-18T05:58:39.390Z,53.40
2019-02-18T06:01:08.777Z,53.40
2019-02-18T06:03:38.207Z,53.40
2019-02-18T06:06:07.540Z,53.40
2019-02-18T06:08:36.912Z,53.40
2019-02-18T06:11:06.201Z,53.40
2019-02-18T06:13:37.587Z,53.50
2019-02-18T06:16:06.963Z,53.40
2019-02-18T06:18:36.173Z,53.50
2019-02-18T06:21:05.557Z,53.50
2019-02-18T06:23:34.918Z,53.60
2019-02-18T06:26:04.618Z,53.70
2019-02-18T06:28:33.911Z,53.70
2019-02-18T06:31:04.595Z,53.70
2019-02-18T06:33:36.589Z,53.70
2019-02-18T06:36:06.124Z,54.00
2019-02-18T06:38:35.455Z,54.00
2019-02-18T06:41:05.816Z,53.90
2019-02-18T06:43:35.177Z,53.90
2019-02-18T06:46:15.629Z,54.00
2019-02-18T06:48:51.566Z,53.90
2019-02-18T06:51:20.956Z,53.90
2019-02-18T06:53:50.240Z,54.00
2019-02-18T06:56:54.148Z,54.00
2019-02-18T06:59:33.356Z,54.00
2019-02-18T07:02:21.611Z,54.60
2019-02-18T07:05:06.786Z,54.00
2019-02-18T07:07:51.620Z,54.10
2019-02-18T07:10:38.410Z,54.10
2019-02-18T07:13:07.806Z,54.20
2019-02-18T07:15:37.303Z,54.20
2019-02-18T07:18:06.705Z,54.40
2019-02-18T07:20:35.983Z,54.30
2019-02-18T07:23:05.287Z,54.40
2019-02-18T07:25:34.560Z,54.50
2019-02-18T07:28:03.923Z,54.60
2019-02-18T07:30:33.289Z,54.60
2019-02-18T07:33:02.498Z,54.80
2019-02-18T07:35:31.854Z,54.70
2019-02-18T07:38:01.303Z,54.90
2019-02-18T07:40:30.621Z,54.90
2019-02-18T07:43:00.005Z,55.00
2019-02-18T07:45:31.362Z,55.00
2019-02-18T07:48:00.644Z,55.60
2019-02-18T07:50:30.033Z,55.10
2019-02-18T07:52:59.439Z,55.10
2019-02-18T07:55:28.839Z,55.10
2019-02-18T07:57:58.233Z,55.20
2019-02-18T08:00:27.595Z,55.20
2019-02-18T08:02:56.899Z,55.50
2019-02-18T08:05:26.261Z,55.50
2019-02-18T08:07:55.585Z,55.60
2019-02-18T08:10:25.005Z,55.80
2019-02-18T08:12:54.357Z,55.90
2019-02-18T08:15:23.751Z,56.00
2019-02-18T08:17:53.141Z,56.00
2019-02-18T08:20:22.525Z,55.90
2019-02-18T08:22:51.795Z,56.00
2019-02-18T08:25:21.162Z,56.10
2019-02-18T08:27:50.467Z,56.20
2019-02-18T08:30:19.755Z,56.20
2019-02-18T08:32:49.078Z,56.20
2019-02-18T08:35:19.552Z,56.20
2019-02-18T08:37:48.942Z,56.20
2019-02-18T08:40:22.556Z,56.30
2019-02-18T08:42:49.108Z,56.30
2019-02-18T08:45:18.356Z,56.20
2019-02-18T08:47:47.759Z,56.20
2019-02-18T08:50:17.272Z,56.20
2019-02-18T08:52:46.686Z,56.20
2019-02-18T08:55:16.081Z,56.20
2019-02-18T08:57:45.443Z,56.10
2019-02-18T09:00:16.239Z,56.10
2019-02-18T09:02:45.574Z,55.90
2019-02-18T09:05:16.081Z,55.90
2019-02-18T09:07:45.415Z,55.90
2019-02-18T09:10:14.824Z,55.80
2019-02-18T09:12:44.370Z,55.70
2019-02-18T09:15:14.528Z,55.80
2019-02-18T09:17:43.847Z,55.60
2019-02-18T09:20:13.647Z,55.50
2019-02-18T09:22:51.864Z,55.50
2019-02-18T09:25:24.759Z,55.30
2019-02-18T09:27:54.059Z,55.30
2019-02-18T09:30:26.644Z,55.20
2019-02-18T09:32:56.090Z,54.90
2019-02-18T09:35:25.419Z,54.90
2019-02-18T09:37:55.063Z,54.90
2019-02-18T09:40:24.379Z,53.90
2019-02-18T09:42:53.695Z,53.80
2019-02-18T09:45:23.005Z,53.70
2019-02-18T09:47:54.186Z,53.60
2019-02-18T09:50:23.315Z,53.60
2019-02-18T09:52:52.663Z,53.30
2019-02-18T09:55:22.023Z,53.40
2019-02-18T09:57:52.419Z,53.20
2019-02-18T10:00:21.788Z,53.10
2019-02-18T10:02:51.449Z,53.10
2019-02-18T10:05:20.815Z,53.00
2019-02-18T10:07:50.213Z,52.90
2019-02-18T10:10:19.624Z,52.80
2019-02-18T10:12:48.916Z,52.80
2019-02-18T10:15:18.281Z,52.80
2019-02-18T10:17:47.682Z,52.70
2019-02-18T10:20:17.112Z,52.70
2019-02-18T10:22:46.468Z,52.50
2019-02-18T10:25:15.881Z,52.30
2019-02-18T10:27:45.290Z,52.20
2019-02-18T10:30:14.621Z,52.10
2019-02-18T10:32:44.045Z,52.00
2019-02-18T10:35:14.545Z,51.90
2019-02-18T10:37:54.652Z,51.80
2019-02-18T10:40:19.374Z,51.70
2019-02-18T10:42:48.770Z,51.50
2019-02-18T10:45:19.774Z,51.30
2019-02-18T10:47:52.374Z,51.30
2019-02-18T10:50:21.806Z,51.30
2019-02-18T10:52:51.316Z,50.90
2019-02-18T10:55:20.983Z,50.90
2019-02-18T10:57:52.984Z,50.50
2019-02-18T11:00:23.827Z,50.50
2019-02-18T11:02:53.342Z,50.40
2019-02-18T11:05:22.760Z,50.30
2019-02-18T11:07:52.581Z,50.00
2019-02-18T11:10:22.085Z,49.90
2019-02-18T11:12:51.815Z,49.80
2019-02-18T11:15:21.187Z,49.90
2019-02-18T11:17:53.496Z,49.90
2019-02-18T11:20:22.812Z,49.90
2019-02-18T11:22:52.300Z,49.90
2019-02-18T11:25:21.683Z,49.90
2019-02-18T11:27:52.279Z,49.80
2019-02-18T11:30:21.925Z,49.60
2019-02-18T11:32:51.563Z,49.40
2019-02-18T11:35:21.367Z,49.30
2019-02-18T11:37:50.954Z,49.40
2019-02-18T11:40:20.439Z,49.20
2019-02-18T11:42:49.871Z,49.00
2019-02-18T11:45:19.471Z,48.90
2019-02-18T11:47:49.170Z,48.90
2019-02-18T11:50:18.693Z,48.80
2019-02-18T11:52:53.531Z,49.30
2019-02-18T11:55:24.169Z,49.60
2019-02-18T11:57:53.648Z,49.10
2019-02-18T12:00:23.492Z,48.60
2019-02-18T12:03:03.175Z,48.20
2019-02-18T12:05:29.491Z,47.60
2019-02-18T12:07:59.221Z,46.10
2019-02-18T12:10:36.754Z,44.70
2019-02-18T12:13:07.711Z,44.30
2019-02-18T12:15:37.469Z,43.60
2019-02-18T12:18:08.232Z,43.00
2019-02-18T12:20:41.038Z,41.80
2019-02-18T12:23:10.835Z,40.20
2019-02-18T12:25:42.320Z,38.90
2019-02-18T12:28:12.118Z,37.90
2019-02-18T12:30:41.707Z,36.40
2019-02-18T12:33:11.445Z,35.20
2019-02-18T12:35:41.028Z,34.50
2019-02-18T12:38:10.567Z,34.00
2019-02-18T12:40:40.055Z,33.20
2019-02-18T12:43:10.620Z,32.10
2019-02-18T12:45:40.001Z,31.60
2019-02-18T12:48:09.572Z,31.00
2019-02-18T12:50:39.120Z,30.40
2019-02-18T12:53:08.639Z,29.70
2019-02-18T12:55:38.185Z,29.40
2019-02-18T12:58:07.619Z,29.40
2019-02-18T13:00:37.891Z,29.00
2019-02-18T13:03:07.681Z,28.60
2019-02-18T13:05:37.281Z,28.40
2019-02-18T13:08:06.967Z,28.00
2019-02-18T13:10:36.609Z,27.70
2019-02-18T13:13:06.073Z,27.80
2019-02-18T13:15:35.563Z,27.60
2019-02-18T13:20:34.573Z,27.20
2019-02-18T13:23:03.955Z,26.90
2019-02-18T13:25:33.419Z,27.10
2019-02-18T13:28:08.385Z,27.00
2019-02-18T13:30:34.008Z,26.80
2019-02-18T13:33:04.622Z,26.90
2019-02-18T13:35:34.327Z,26.40
2019-02-18T13:38:03.821Z,26.50
2019-02-18T13:40:33.354Z,26.50
2019-02-18T13:43:03.047Z,26.70
2019-02-18T13:45:38.676Z,26.40
2019-02-18T13:48:08.600Z,26.00
2019-02-18T13:50:38.545Z,26.00
2019-02-18T13:53:10.297Z,26.10
2019-02-18T13:55:39.766Z,26.50
2019-02-18T13:58:09.243Z,27.20
2019-02-18T14:00:38.991Z,27.70
2019-02-18T14:03:08.610Z,28.20
2019-02-18T14:05:38.272Z,28.80
2019-02-18T14:08:07.704Z,29.20
2019-02-18T14:10:37.050Z,29.50
2019-02-18T14:13:07.076Z,30.20
2019-02-18T14:15:47.433Z,30.00
2019-02-18T14:18:16.776Z,30.20
2019-02-18T14:20:46.248Z,30.60
2019-02-18T14:23:15.969Z,31.00
2019-02-18T14:25:45.675Z,31.30
2019-02-18T14:28:17.642Z,31.50
2019-02-18T14:30:47.003Z,31.70
2019-02-18T14:33:17.440Z,32.00
2019-02-18T14:35:46.872Z,32.30
2019-02-18T14:38:16.421Z,32.50
2019-02-18T14:40:46.001Z,32.60
2019-02-18T14:43:15.460Z,32.80
2019-02-18T14:45:45.084Z,33.00
2019-02-18T14:48:14.939Z,33.10
2019-02-18T14:50:56.504Z,33.30
2019-02-18T14:53:19.811Z,33.50
2019-02-18T14:55:49.375Z,33.80
2019-02-18T14:58:18.805Z,33.80
2019-02-18T15:00:48.611Z,34.00
2019-02-18T15:03:18.267Z,34.00
2019-02-18T15:05:47.885Z,34.10
2019-02-18T15:08:17.604Z,34.00
2019-02-18T15:10:48.245Z,34.00
2019-02-18T15:13:17.765Z,34.00
2019-02-18T15:15:47.459Z,34.10
2019-02-18T15:18:20.003Z,34.20
2019-02-18T15:20:49.342Z,34.30
2019-02-18T15:23:21.705Z,34.90
2019-02-18T15:25:54.105Z,34.30
2019-02-18T15:28:23.809Z,34.40
2019-02-18T15:30:53.345Z,34.60
2019-02-18T15:33:24.109Z,34.70
2019-02-18T15:35:56.178Z,34.80
2019-02-18T15:38:25.716Z,35.10
2019-02-18T15:40:57.538Z,35.40
2019-02-18T15:43:28.824Z,35.40
2019-02-18T15:45:58.658Z,35.80
2019-02-18T15:48:30.530Z,36.00
2019-02-18T15:51:00.622Z,36.20
2019-02-18T15:53:30.495Z,36.20
2019-02-18T15:56:00.127Z,36.40
2019-02-18T15:58:29.523Z,36.60
2019-02-18T16:01:01.038Z,36.60
2019-02-18T16:03:30.580Z,36.70
2019-02-18T16:06:01.692Z,36.90
2019-02-18T16:08:32.409Z,37.10
2019-02-18T16:11:02.180Z,37.10
2019-02-18T16:13:31.747Z,37.20
2019-02-18T16:16:01.592Z,37.30
2019-02-18T16:21:07.309Z,37.40
2019-02-18T16:23:36.677Z,37.60
2019-02-18T16:26:06.111Z,37.60
2019-02-18T16:28:35.789Z,37.60
2019-02-18T16:31:10.533Z,37.60
2019-02-18T16:33:58.982Z,37.70
2019-02-18T16:36:28.879Z,37.60
2019-02-18T16:38:58.475Z,38.30
2019-02-18T16:41:28.032Z,37.70
2019-02-18T16:43:57.603Z,37.80
2019-02-18T16:46:30.656Z,37.90
2019-02-18T16:49:00.610Z,38.00
2019-02-18T16:51:30.287Z,38.20
2019-02-18T16:54:01.059Z,38.20
2019-02-18T16:56:30.633Z,38.30
2019-02-18T16:59:03.819Z,38.30
2019-02-18T17:01:33.546Z,38.20
2019-02-18T17:04:03.273Z,38.40
2019-02-18T17:06:32.670Z,38.40
2019-02-18T17:09:02.085Z,38.40
2019-02-18T17:11:31.821Z,38.40
2019-02-18T17:14:03.086Z,38.60
2019-02-18T17:16:32.260Z,38.60
2019-02-18T17:19:04.324Z,38.70
2019-02-18T17:21:39.184Z,38.90
2019-02-18T17:24:08.511Z,38.90
2019-02-18T17:26:41.672Z,39.00
2019-02-18T17:29:11.017Z,39.20
2019-02-18T17:31:40.666Z,39.20
2019-02-18T17:34:10.112Z,39.30
2019-02-18T17:36:42.003Z,39.30
2019-02-18T17:39:11.390Z,39.40
2019-02-18T17:41:43.972Z,39.50
2019-02-18T17:44:20.010Z,39.50
2019-02-18T18:06:08.199Z,39.60
2019-02-18T18:08:37.950Z,39.80
2019-02-18T18:11:07.942Z,39.80
2019-02-18T18:13:43.495Z,40.00
2019-02-18T18:16:16.551Z,40.00
2019-02-18T18:18:47.547Z,40.10
2019-02-18T18:21:17.313Z,40.10
2019-02-18T18:23:46.769Z,40.30
2019-02-18T18:26:16.415Z,40.20
2019-02-18T18:28:47.743Z,40.30
2019-02-18T18:31:17.321Z,40.30
2019-02-18T18:33:47.021Z,40.50
